createdAt,value
2022-08-09T00:02:03.376Z,1.83
2022-08-09T00:05:03.038Z,2.10
2022-08-09T00:08:00.041Z,2.20
2022-08-09T00:10:51.257Z,1.92
2022-08-09T00:13:33.172Z,1.90
2022-08-09T00:16:36.816Z,2.17
2022-08-09T00:19:20.099Z,2.38
2022-08-09T00:22:08.315Z,2.67
2022-08-09T00:24:53.090Z,2.15
2022-08-09T00:27:43.445Z,2.20
2022-08-09T00:30:37.081Z,2.42
2022-08-09T00:33:49.021Z,2.60
2022-08-09T00:36:35.094Z,2.83
2022-08-09T00:40:13.159Z,2.65
2022-08-09T00:44:11.526Z,2.67
2022-08-09T00:45:50.599Z,2.80
2022-08-09T00:48:36.095Z,3.22
2022-08-09T00:51:33.944Z,2.83
2022-08-09T00:54:31.357Z,3.38
2022-08-09T00:57:24.743Z,3.10
2022-08-09T01:00:30.130Z,3.17
2022-08-09T01:03:31.097Z,3.10
2022-08-09T01:06:18.580Z,3.50
2022-08-09T01:09:16.142Z,3.50
2022-08-09T01:12:04.284Z,3.30
2022-08-09T01:15:10.113Z,3.65
2022-08-09T01:18:03.333Z,3.30
2022-08-09T01:21:07.185Z,3.90
2022-08-09T01:24:06.311Z,3.92
2022-08-09T01:27:17.811Z,3.90
2022-08-09T01:30:33.683Z,3.90
2022-08-09T01:33:19.363Z,3.70
2022-08-09T01:36:18.129Z,3.80
2022-08-09T01:39:09.312Z,3.95
2022-08-09T01:42:11.241Z,3.72
2022-08-09T01:44:55.925Z,4.30
2022-08-09T01:47:45.125Z,4.25
2022-08-09T01:50:48.202Z,4.05
2022-08-09T01:53:41.387Z,4.78
2022-08-09T01:56:23.326Z,4.72
2022-08-09T01:59:17.125Z,4.28
2022-08-09T02:02:10.244Z,4.32
2022-08-09T02:04:53.173Z,4.60
2022-08-09T02:08:38.808Z,5.45
2022-08-09T02:10:55.372Z,4.97
2022-08-09T02:13:40.351Z,4.35
2022-08-09T02:16:35.257Z,5.30
2022-08-09T02:19:39.183Z,4.75
2022-08-09T02:22:39.583Z,4.82
2022-08-09T02:25:33.140Z,4.95
2022-08-09T02:28:37.129Z,4.38
2022-08-09T02:31:22.298Z,4.72
2022-08-09T02:34:40.023Z,4.72
2022-08-09T02:37:31.848Z,4.75
2022-08-09T02:40:30.375Z,4.82
2022-08-09T02:43:16.374Z,4.90
2022-08-09T02:46:07.249Z,4.97
2022-08-09T02:48:57.323Z,4.93
2022-08-09T02:51:56.206Z,5.25
2022-08-09T02:54:55.051Z,5.00
2022-08-09T02:57:40.433Z,4.68
2022-08-09T03:00:58.408Z,4.82
2022-08-09T03:04:18.133Z,5.22
2022-08-09T03:06:56.290Z,4.55
2022-08-09T03:09:53.937Z,5.13
2022-08-09T03:12:49.463Z,4.78
2022-08-09T03:16:06.090Z,4.85
2022-08-09T03:18:56.384Z,4.40
2022-08-09T03:21:44.169Z,4.75
2022-08-09T03:24:42.754Z,5.28
2022-08-09T03:27:44.684Z,5.00
2022-08-09T03:30:36.674Z,5.85
2022-08-09T03:33:19.592Z,4.60
2022-08-09T03:36:12.303Z,4.95
2022-08-09T03:39:02.269Z,4.75
2022-08-09T03:41:50.407Z,4.88
2022-08-09T03:45:01.159Z,4.70
2022-08-09T03:47:51.328Z,5.15
2022-08-09T03:50:41.177Z,5.40
2022-08-09T03:53:32.328Z,5.38
2022-08-09T03:56:19.174Z,5.30
2022-08-09T03:59:07.411Z,5.30
2022-08-09T04:04:45.562Z,5.07
2022-08-09T04:07:33.754Z,5.22
2022-08-09T04:10:36.309Z,4.95
2022-08-09T04:13:26.447Z,5.60
2022-08-09T04:16:26.392Z,5.35
2022-08-09T04:19:42.621Z,5.00
2022-08-09T04:22:31.876Z,5.40
2022-08-09T04:25:22.192Z,5.60
2022-08-09T04:28:10.398Z,5.85
2022-08-09T04:31:00.200Z,6.00
2022-08-09T04:33:57.022Z,5.78
2022-08-09T04:36:44.949Z,5.57
2022-08-09T04:39:40.728Z,6.35
2022-08-09T04:42:22.262Z,6.10
2022-08-09T04:45:11.341Z,6.20
2022-08-09T04:48:01.144Z,5.50
2022-08-09T04:50:59.264Z,6.07
2022-08-09T04:53:54.332Z,6.45
2022-08-09T04:56:48.433Z,7.22
2022-08-09T04:59:36.206Z,6.93
2022-08-09T05:02:31.425Z,6.45
2022-08-09T05:05:31.325Z,6.85
2022-08-09T05:08:15.146Z,6.60
2022-08-09T05:11:10.264Z,6.75
2022-08-09T05:14:01.433Z,6.35
2022-08-09T05:16:59.383Z,6.78
2022-08-09T05:19:47.424Z,6.90
2022-08-09T05:23:53.965Z,6.65
2022-08-09T05:25:45.506Z,7.00
2022-08-09T05:31:46.520Z,6.85
2022-08-09T05:34:37.292Z,8.50
2022-08-09T05:37:30.348Z,6.85
2022-08-09T05:40:27.254Z,7.78
2022-08-09T05:43:15.222Z,7.85
2022-08-09T05:45:58.494Z,7.93
2022-08-09T05:48:58.832Z,7.97
2022-08-09T05:51:54.274Z,8.07
2022-08-09T05:54:49.365Z,7.63
2022-08-09T05:57:55.153Z,8.10
2022-08-09T06:00:46.242Z,7.07
2022-08-09T06:03:34.951Z,7.80
2022-08-09T06:06:27.289Z,7.18
2022-08-09T06:09:40.509Z,7.75
2022-08-09T06:12:17.230Z,7.32
2022-08-09T06:15:09.809Z,7.60
2022-08-09T06:17:52.247Z,7.50
2022-08-09T06:20:41.844Z,7.18
2022-08-09T06:23:57.250Z,7.57
2022-08-09T06:26:47.529Z,7.82
2022-08-09T06:29:48.330Z,7.70
2022-08-09T06:32:53.563Z,6.97
2022-08-09T06:35:57.748Z,7.32
2022-08-09T06:38:50.189Z,8.13
2022-08-09T06:41:55.840Z,7.20
2022-08-09T06:44:40.439Z,7.25
2022-08-09T06:47:22.323Z,7.35
2022-08-09T06:50:16.740Z,6.88
2022-08-09T06:53:15.253Z,6.97
2022-08-09T06:55:59.203Z,7.63
2022-08-09T07:00:50.098Z,7.18
2022-08-09T07:02:03.612Z,7.18
2022-08-09T07:04:53.324Z,6.43
2022-08-09T07:07:59.593Z,6.50
2022-08-09T07:10:56.280Z,7.32
2022-08-09T07:14:05.240Z,5.95
2022-08-09T07:16:55.362Z,6.88
2022-08-09T07:19:55.229Z,5.88
2022-08-09T07:22:47.525Z,5.70
2022-08-09T07:25:38.906Z,5.85
2022-08-09T07:28:37.298Z,5.78
2022-08-09T07:31:48.171Z,5.70
2022-08-09T07:34:37.244Z,5.30
2022-08-09T07:37:26.443Z,5.13
2022-08-09T07:40:17.597Z,6.20
2022-08-09T07:43:16.517Z,4.80
2022-08-09T07:46:05.301Z,4.78
2022-08-09T07:48:59.227Z,4.80
2022-08-09T07:52:05.942Z,4.53
2022-08-09T07:54:51.534Z,4.55
2022-08-09T07:57:46.878Z,4.60
2022-08-09T08:03:38.282Z,4.90
2022-08-09T08:06:32.606Z,4.17
2022-08-09T08:09:35.578Z,4.35
2022-08-09T08:12:31.091Z,4.07
2022-08-09T08:15:23.163Z,4.38
2022-08-09T08:18:14.422Z,4.50
2022-08-09T08:21:03.343Z,3.80
2022-08-09T08:23:55.690Z,4.40
2022-08-09T08:26:54.870Z,4.25
2022-08-09T08:29:48.683Z,3.38
2022-08-09T08:32:32.299Z,4.03
2022-08-09T08:35:22.580Z,3.65
2022-08-09T08:38:11.620Z,3.25
2022-08-09T08:41:05.598Z,3.58
2022-08-09T08:43:59.312Z,2.70
2022-08-09T08:47:03.398Z,3.63
2022-08-09T08:50:06.292Z,3.25
2022-08-09T08:53:03.995Z,2.95
2022-08-09T08:56:00.503Z,2.83
2022-08-09T08:58:50.526Z,2.90
2022-08-09T09:01:35.439Z,3.00
2022-08-09T09:04:52.509Z,2.30
2022-08-09T09:07:42.433Z,2.10
2022-08-09T09:10:33.463Z,2.35
2022-08-09T09:13:15.375Z,2.70
2022-08-09T09:16:07.041Z,2.17
2022-08-09T09:19:10.733Z,2.03
2022-08-09T09:22:07.788Z,2.33
2022-08-09T09:26:04.669Z,2.00
2022-08-09T09:28:11.236Z,2.00
2022-08-09T09:31:17.227Z,2.22
2022-08-09T09:34:29.041Z,2.50
2022-08-09T09:37:16.443Z,2.30
2022-08-09T09:40:11.856Z,2.70
2022-08-09T09:43:04.554Z,2.50
2022-08-09T09:49:15.470Z,2.30
2022-08-09T09:52:36.693Z,1.70
2022-08-09T09:55:27.978Z,1.90
2022-08-09T09:58:19.085Z,2.40
2022-08-09T10:01:36.774Z,2.00
2022-08-09T10:04:22.805Z,1.73
2022-08-09T10:07:33.685Z,2.13
2022-08-09T10:10:22.408Z,1.92
2022-08-09T10:13:42.750Z,1.50
2022-08-09T10:16:57.953Z,1.63
2022-08-09T10:19:42.470Z,1.70
2022-08-09T10:25:25.568Z,1.98
2022-08-09T10:28:16.387Z,1.95
2022-08-09T10:34:32.526Z,1.60
2022-08-09T10:37:21.624Z,1.55
2022-08-09T10:40:12.117Z,2.20
2022-08-09T10:43:21.592Z,1.55
2022-08-09T10:46:03.352Z,2.33
2022-08-09T10:48:59.506Z,2.30
2022-08-09T10:51:57.366Z,2.25
2022-08-09T10:54:40.575Z,1.90
2022-08-09T10:57:42.375Z,1.67
2022-08-09T11:03:02.713Z,2.40
2022-08-09T11:04:32.510Z,1.45
2022-08-09T11:07:57.495Z,2.05
2022-08-09T11:11:14.447Z,1.92
2022-08-09T11:14:37.995Z,1.80
2022-08-09T11:18:03.701Z,1.98
2022-08-09T11:20:53.540Z,2.38
2022-08-09T11:23:45.238Z,1.70
2022-08-09T11:26:54.607Z,1.90
2022-08-09T11:30:32.916Z,2.00
2022-08-09T11:33:32.539Z,2.28
2022-08-09T11:36:30.494Z,1.85
2022-08-09T11:39:24.186Z,1.85
2022-08-09T11:42:06.360Z,2.10
2022-08-09T11:44:57.294Z,2.50
2022-08-09T11:47:52.358Z,1.70
2022-08-09T11:52:48.641Z,1.60
2022-08-09T11:54:34.869Z,1.90
2022-08-09T11:57:56.849Z,1.70
2022-08-09T12:00:48.372Z,1.90
2022-08-09T12:03:56.911Z,1.83
2022-08-09T12:06:40.372Z,1.77
2022-08-09T12:09:50.345Z,1.65
2022-08-09T12:12:33.382Z,2.00
2022-08-09T12:15:49.743Z,1.83
2022-08-09T12:18:39.375Z,1.30
2022-08-09T12:21:38.767Z,1.75
2022-08-09T12:24:33.446Z,1.83
2022-08-09T12:28:59.533Z,1.33
2022-08-09T12:30:45.427Z,1.70
2022-08-09T12:33:59.143Z,1.60
2022-08-09T12:36:38.488Z,1.88
2022-08-09T12:39:29.780Z,1.55
2022-08-09T12:42:16.235Z,1.60
2022-08-09T12:45:32.725Z,1.60
2022-08-09T12:48:20.453Z,1.40
2022-08-09T12:51:30.494Z,1.77
2022-08-09T12:54:31.468Z,1.58
2022-08-09T12:57:19.768Z,1.85
2022-08-09T13:00:07.657Z,2.17
2022-08-09T13:03:03.701Z,1.60
2022-08-09T13:06:14.421Z,1.67
2022-08-09T13:09:08.706Z,1.75
2022-08-09T13:12:01.834Z,1.75
2022-08-09T13:14:54.027Z,1.88
2022-08-09T13:18:02.604Z,1.90
2022-08-09T13:21:04.250Z,1.73
2022-08-09T13:24:42.618Z,1.17
2022-08-09T13:27:08.485Z,1.80
2022-08-09T13:30:51.141Z,1.20
2022-08-09T13:33:11.496Z,1.35
2022-08-09T13:36:37.999Z,1.20
2022-08-09T13:41:17.785Z,1.48
2022-08-09T13:42:19.335Z,1.23
2022-08-09T13:45:12.471Z,1.38
2022-08-09T13:48:00.625Z,1.40
2022-08-09T13:50:50.467Z,1.77
2022-08-09T13:53:47.449Z,1.30
2022-08-09T13:56:36.492Z,1.73
2022-08-09T13:59:25.386Z,1.33
2022-08-09T14:02:13.659Z,1.42
2022-08-09T14:05:06.693Z,1.27
2022-08-09T14:08:01.231Z,1.20
2022-08-09T14:10:50.656Z,1.42
2022-08-09T14:14:22.002Z,1.17
2022-08-09T14:16:55.679Z,1.20
2022-08-09T14:19:44.576Z,1.50
2022-08-09T14:22:33.058Z,1.42
2022-08-09T14:25:22.481Z,1.23
2022-08-09T14:28:12.679Z,1.35
2022-08-09T14:31:01.450Z,0.93
2022-08-09T14:33:52.076Z,1.05
2022-08-09T14:36:39.814Z,1.25
2022-08-09T14:39:40.506Z,1.13
2022-08-09T14:42:32.460Z,1.10
2022-08-09T14:46:55.885Z,1.92
2022-08-09T14:48:31.514Z,0.90
2022-08-09T14:51:20.709Z,0.90
2022-08-09T14:54:22.412Z,1.23
2022-08-09T14:57:15.640Z,1.97
2022-08-09T15:00:05.482Z,0.98
2022-08-09T15:02:51.787Z,1.30
2022-08-09T15:05:52.508Z,3.60
2022-08-09T15:11:38.493Z,0.93
2022-08-09T15:14:26.687Z,1.13
2022-08-09T15:17:16.472Z,1.45
2022-08-09T15:20:15.139Z,1.13
2022-08-09T15:24:02.152Z,1.10
2022-08-09T15:26:19.287Z,1.23
2022-08-09T15:30:58.542Z,1.00
2022-08-09T15:32:30.357Z,0.88
2022-08-09T15:35:40.175Z,0.90
2022-08-09T15:38:22.497Z,0.85
2022-08-09T15:41:10.827Z,0.70
2022-08-09T15:44:03.784Z,0.95
2022-08-09T15:46:51.705Z,0.70
2022-08-09T15:49:33.485Z,0.85
2022-08-09T15:55:27.504Z,0.98
2022-08-09T15:58:26.395Z,0.85
2022-08-09T16:01:15.582Z,0.90
2022-08-09T16:04:03.618Z,1.00
2022-08-09T16:06:51.582Z,2.95
2022-08-09T16:10:04.025Z,3.00
2022-08-09T16:12:50.111Z,1.00
2022-08-09T16:16:11.470Z,1.25
2022-08-09T16:18:44.957Z,0.80
2022-08-09T16:21:34.875Z,1.00
2022-08-09T16:24:30.007Z,0.90
2022-08-09T16:27:23.699Z,1.08
2022-08-09T16:30:08.729Z,0.90
2022-08-09T16:33:16.509Z,1.10
2022-08-09T16:36:11.823Z,0.98
2022-08-09T16:38:57.577Z,1.10
2022-08-09T16:42:03.649Z,1.73
2022-08-09T16:44:47.592Z,1.00
2022-08-09T16:48:41.702Z,1.10
2022-08-09T16:50:59.314Z,1.20
2022-08-09T16:57:02.692Z,1.08
2022-08-09T16:59:50.324Z,1.40
2022-08-09T17:02:47.651Z,1.20
2022-08-09T17:06:02.785Z,1.30
2022-08-09T17:08:59.921Z,1.70
2022-08-09T17:11:53.113Z,0.98
2022-08-09T17:14:36.612Z,1.70
2022-08-09T17:17:27.466Z,1.52
2022-08-09T17:20:32.281Z,1.10
2022-08-09T17:23:19.471Z,1.13
2022-08-09T17:26:08.505Z,1.80
2022-08-09T17:29:00.752Z,1.70
2022-08-09T17:31:49.552Z,1.35
2022-08-09T17:35:01.671Z,1.38
2022-08-09T17:38:02.593Z,1.50
2022-08-09T17:41:03.545Z,1.17
2022-08-09T17:44:42.428Z,1.45
2022-08-09T17:47:00.587Z,1.10
2022-08-09T17:49:54.679Z,1.27
2022-08-09T17:52:56.540Z,1.05
2022-08-09T17:55:59.671Z,1.42
2022-08-09T17:58:49.794Z,1.40
2022-08-09T18:02:03.854Z,1.10
2022-08-09T18:04:47.485Z,1.50
2022-08-09T18:07:37.630Z,1.27
2022-08-09T18:10:25.737Z,1.10
2022-08-09T18:13:39.132Z,1.10
2022-08-09T18:16:29.442Z,1.08
2022-08-09T18:21:01.751Z,1.38
2022-08-09T18:22:20.832Z,1.20
2022-08-09T18:25:03.653Z,1.35
2022-08-09T18:28:03.277Z,0.90
2022-08-09T18:30:55.672Z,1.00
2022-08-09T18:33:53.115Z,1.30
2022-08-09T18:36:42.646Z,1.10
2022-08-09T18:39:39.558Z,1.50
2022-08-09T18:42:30.613Z,1.08
2022-08-09T18:45:21.555Z,1.30
2022-08-09T18:48:21.559Z,1.10
2022-08-09T18:51:14.783Z,1.48
2022-08-09T18:54:16.592Z,1.33
2022-08-09T18:57:10.814Z,1.13
2022-08-09T18:59:57.488Z,1.30
2022-08-09T19:02:48.595Z,1.08
2022-08-09T19:06:02.213Z,1.27
2022-08-09T19:08:55.344Z,1.40
2022-08-09T19:11:45.055Z,1.35
2022-08-09T19:14:33.584Z,1.10
2022-08-09T19:17:19.130Z,1.30
2022-08-09T19:20:15.642Z,1.30
2022-08-09T19:23:05.564Z,1.58
2022-08-09T19:26:02.104Z,1.17
2022-08-09T19:28:48.902Z,1.17
2022-08-09T19:31:45.067Z,1.10
2022-08-09T19:34:27.598Z,1.27
2022-08-09T19:37:16.886Z,1.33
2022-08-09T19:40:04.305Z,1.02
2022-08-09T19:42:53.761Z,1.15
2022-08-09T19:45:42.599Z,1.00
2022-08-09T19:49:00.050Z,1.08
2022-08-09T19:51:39.692Z,1.00
2022-08-09T19:54:34.588Z,0.90
2022-08-09T19:57:32.616Z,1.10
2022-08-09T20:00:23.864Z,1.50
2022-08-09T20:04:17.016Z,1.00
2022-08-09T20:06:23.938Z,1.30
2022-08-09T20:09:44.926Z,1.08
2022-08-09T20:12:27.416Z,1.02
2022-08-09T20:16:37.289Z,0.90
2022-08-09T20:18:39.765Z,0.90
2022-08-09T20:21:56.237Z,1.00
2022-08-09T20:24:54.446Z,1.38
2022-08-09T20:27:39.727Z,1.25
2022-08-09T20:30:36.607Z,1.05
2022-08-09T20:33:25.609Z,0.95
2022-08-09T20:36:14.689Z,1.08
2022-08-09T20:39:18.732Z,1.30
2022-08-09T20:42:16.669Z,1.27
2022-08-09T20:46:00.651Z,1.13
2022-08-09T20:48:21.238Z,1.40
2022-08-09T20:51:19.443Z,1.42
2022-08-09T20:54:17.116Z,1.13
2022-08-09T20:57:12.653Z,1.33
2022-08-09T21:00:20.528Z,1.30
2022-08-09T21:03:07.674Z,1.60
2022-08-09T21:05:59.636Z,1.10
2022-08-09T21:08:41.634Z,1.83
2022-08-09T21:14:41.630Z,1.50
2022-08-09T21:18:23.906Z,1.05
2022-08-09T21:20:44.879Z,1.58
2022-08-09T21:23:51.377Z,1.27
2022-08-09T21:26:39.778Z,1.60
2022-08-09T21:29:23.723Z,1.10
2022-08-09T21:32:15.383Z,0.90
2022-08-09T21:35:01.681Z,1.00
2022-08-09T21:38:00.041Z,1.20
2022-08-09T21:40:50.661Z,1.30
2022-08-09T21:43:56.405Z,1.52
2022-08-09T21:46:45.685Z,1.23
2022-08-09T21:49:39.429Z,1.30
2022-08-09T21:52:38.731Z,1.20
2022-08-09T21:55:34.657Z,0.98
2022-08-09T21:58:29.267Z,1.15
2022-08-09T22:01:45.071Z,1.30
2022-08-09T22:04:21.519Z,1.02
2022-08-09T22:07:39.988Z,1.23
2022-08-09T22:11:50.228Z,1.20
2022-08-09T22:13:43.593Z,1.23
2022-08-09T22:16:37.107Z,1.00
2022-08-09T22:19:25.511Z,0.95
2022-08-09T22:22:26.869Z,1.20
2022-08-09T22:26:08.430Z,1.38
2022-08-09T22:28:29.629Z,1.30
2022-08-09T22:31:22.667Z,1.25
2022-08-09T22:34:20.459Z,1.60
2022-08-09T22:37:13.911Z,1.58
2022-08-09T22:40:01.808Z,1.27
2022-08-09T22:42:43.865Z,1.67
2022-08-09T22:48:14.555Z,1.10
2022-08-09T22:48:50.628Z,1.30
2022-08-09T22:51:49.293Z,1.27
2022-08-09T22:54:45.327Z,1.30
2022-08-09T22:57:44.469Z,1.38
2022-08-09T23:00:54.735Z,1.13
2022-08-09T23:04:03.974Z,1.20
2022-08-09T23:07:11.294Z,1.45
2022-08-09T23:09:55.514Z,1.30
2022-08-09T23:12:44.707Z,1.40
2022-08-09T23:15:40.666Z,1.27
2022-08-09T23:18:28.848Z,1.33
2022-08-09T23:21:23.784Z,1.25
2022-08-09T23:24:15.776Z,1.52
2022-08-09T23:26:56.969Z,1.33
2022-08-09T23:29:44.684Z,1.58
2022-08-09T23:32:32.867Z,1.52
2022-08-09T23:35:22.758Z,2.03
2022-08-09T23:38:10.838Z,1.80
2022-08-09T23:41:00.711Z,1.30
2022-08-09T23:43:48.837Z,1.38
2022-08-09T23:46:42.684Z,1.92
2022-08-09T23:49:25.063Z,1.50
2022-08-09T23:52:13.720Z,1.60
2022-08-09T23:55:10.780Z,1.92
2022-08-09T23:58:10.535Z,2.28
